Archival Weather

Republic

Farmingdale, New York (KFRG)

Report from: Wednesday, February 14, 2024 3:53 PM EST
Current time: Saturday, June 22, 2024 4:36 AM EDT

Current weather – Weather history – Daily summaries
Weather forecast

Temperature1.7°C (35.1°F)
Wind chill-3.6°C (25.5°F)
Dew point-11.7°C (10.9°F)
Winds 13 kts (6.7 m/s, 15 mph) West-Northwest (300°)
Wind gusts 22 kts (11.3 m/s, 25.3 mph)
Peak wind 30 kts (15.4 m/s, 34.5 mph) Northwest (310°) at 20:30
Visibility10 mi. (16.1 km)
Clouds Sky clear
Altimeter30.01 in.Hg (1016 mB)
Relative humidity36 %
Density altitude-1,671 ft. (-509 m)
Sea-level pressure101.6 kPa (1016 mB, 30.01 in.Hg)
Remarks Automated weather observing station without precipitation discriminator
Pressure rising more quickly
Flight conditions Visual Meteorological Conditions
Raw dataKFRG 142053Z 30013G22KT 10SM CLR 02/M12 A3001 RMK AO1 PK WND 31030/2030 SLP161 T00171117 53006
An error has occurred. This application may no longer respond until reloaded. Reload 🗙